Time;durP1;ratioP1;P1;durP2;ratioP2;P2;SDS_P1;SDS_P2;PMS_P1;PMS_P2;Temp;Humidity;BMP_temperature;BMP_pressure;BME280_temperature;BME280_humidity;BME280_pressure;Samples;Min_cycle;Max_cycle;Signal;HPM_P1;HPM_P2
2022/05/07 00:02:19;;;;;;;20.15;18.15;;;15.80;88.90;;;;;;5010489;28;93334;-72
2022/05/07 00:04:46;;;;;;;21.67;18.13;;;15.80;89.00;;;;;;5012966;28;92951;-72
2022/05/07 00:07:13;;;;;;;21.85;19.60;;;15.80;89.00;;;;;;5010686;28;92487;-73
2022/05/07 00:09:40;;;;;;;20.30;18.17;;;15.80;89.10;;;;;;5013618;28;92465;-73
2022/05/07 00:12:08;;;;;;;20.80;18.65;;;15.80;89.20;;;;;;5015374;28;97659;-72
2022/05/07 00:14:36;;;;;;;24.27;18.75;;;15.80;89.40;;;;;;5010821;28;95052;-72
2022/05/07 00:19:48;;;;;;;20.73;18.63;;;15.80;89.50;;;;;;5014366;28;94907;-73
2022/05/07 00:22:15;;;;;;;22.33;18.27;;;15.70;89.70;;;;;;5010166;28;96303;-73
2022/05/07 00:24:43;;;;;;;21.80;19.17;;;15.80;89.80;;;;;;5012056;28;92459;-73
2022/05/07 00:27:11;;;;;;;21.05;18.48;;;15.80;89.90;;;;;;4993761;28;92437;-73
2022/05/07 00:29:38;;;;;;;23.13;20.00;;;15.80;89.90;;;;;;5011619;28;92569;-73
2022/05/07 00:32:05;;;;;;;22.23;19.20;;;15.80;89.80;;;;;;5015079;28;93160;-73
2022/05/07 00:34:33;;;;;;;22.63;19.52;;;15.90;89.80;;;;;;5010606;28;95749;-73
2022/05/07 00:36:59;;;;;;;21.73;19.35;;;15.90;89.80;;;;;;5015713;28;91565;-72
2022/05/07 00:39:26;;;;;;;22.27;19.90;;;15.80;89.80;;;;;;5009267;28;92424;-73
2022/05/07 00:41:54;;;;;;;24.65;19.73;;;15.80;89.70;;;;;;5014732;28;93277;-72
2022/05/07 00:44:23;;;;;;;22.67;20.10;;;15.90;89.80;;;;;;5013403;28;94776;-72
2022/05/07 00:46:50;;;;;;;21.98;19.60;;;15.90;89.80;;;;;;5013073;28;92796;-71
2022/05/07 00:49:18;;;;;;;22.15;18.85;;;15.90;89.70;;;;;;5010036;28;92423;-71
2022/05/07 00:51:46;;;;;;;23.52;20.75;;;15.90;89.70;;;;;;5011984;28;95816;-72
2022/05/07 00:54:13;;;;;;;24.65;21.33;;;16.00;89.70;;;;;;5009938;28;95837;-72
2022/05/07 00:56:41;;;;;;;22.45;20.05;;;16.00;89.80;;;;;;4995122;28;92337;-72
2022/05/07 00:59:09;;;;;;;23.00;20.15;;;16.00;89.70;;;;;;5009876;28;92565;-71
2022/05/07 01:01:36;;;;;;;23.92;21.40;;;16.00;89.80;;;;;;5012111;28;91786;-72
2022/05/07 01:04:04;;;;;;;23.25;20.27;;;16.00;89.90;;;;;;5010051;28;94995;-72
2022/05/07 01:06:34;;;;;;;24.80;20.88;;;15.90;90.00;;;;;;5009832;28;92504;-72
2022/05/07 01:09:05;;;;;;;24.98;22.17;;;16.00;90.00;;;;;;5008784;28;94951;-72
2022/05/07 01:11:33;;;;;;;26.17;22.33;;;16.00;89.90;;;;;;5009936;28;93150;-72
2022/05/07 01:14:01;;;;;;;26.63;22.55;;;16.00;89.80;;;;;;5013152;28;95104;-72
2022/05/07 01:16:30;;;;;;;24.08;21.35;;;16.00;90.10;;;;;;5009616;28;92536;-72
2022/05/07 01:18:57;;;;;;;28.88;24.45;;;16.00;89.90;;;;;;5009716;28;92502;-72
2022/05/07 01:21:24;;;;;;;26.42;22.02;;;16.00;90.10;;;;;;5008916;28;95548;-72
2022/05/07 01:23:53;;;;;;;27.27;22.33;;;16.00;90.00;;;;;;5012809;28;95447;-72
2022/05/07 01:26:25;;;;;;;24.58;21.83;;;16.10;90.00;;;;;;5010005;28;91939;-72
2022/05/07 01:29:01;;;;;;;28.50;22.02;;;16.10;90.00;;;;;;5012891;28;92426;-72
2022/05/07 01:31:30;;;;;;;27.17;22.77;;;16.20;89.90;;;;;;5009327;28;95781;-73
2022/05/07 01:33:57;;;;;;;25.10;22.13;;;16.10;90.00;;;;;;5008309;28;95799;-73
2022/05/07 01:36:26;;;;;;;25.88;21.67;;;16.10;90.00;;;;;;5009452;28;92653;-73
2022/05/07 01:38:59;;;;;;;23.95;20.70;;;16.10;89.90;;;;;;5005312;28;92479;-73
2022/05/07 01:41:26;;;;;;;26.80;20.92;;;16.10;90.20;;;;;;5009361;28;95738;-73
2022/05/07 01:43:53;;;;;;;25.45;21.80;;;16.10;89.90;;;;;;5012434;28;95535;-73
2022/05/07 01:49:10;;;;;;;24.42;21.02;;;16.10;90.00;;;;;;5009717;28;92521;-73
2022/05/07 01:51:37;;;;;;;23.33;20.88;;;16.10;90.00;;;;;;5013385;28;95036;-73
2022/05/07 01:54:04;;;;;;;24.75;22.17;;;16.10;90.00;;;;;;5012845;28;92571;-73
2022/05/07 01:56:31;;;;;;;24.30;21.70;;;16.10;90.00;;;;;;5012730;28;92918;-72
2022/05/07 01:58:58;;;;;;;24.73;21.58;;;16.10;90.30;;;;;;5011195;28;94892;-73
2022/05/07 02:01:25;;;;;;;25.88;22.15;;;16.10;90.00;;;;;;5012545;28;95491;-72
2022/05/07 02:03:52;;;;;;;27.77;23.27;;;16.10;90.00;;;;;;5015467;28;95440;-72
2022/05/07 02:06:24;;;;;;;27.20;21.85;;;16.20;90.00;;;;;;5012505;28;92445;-72
2022/05/07 02:08:51;;;;;;;24.58;21.85;;;16.20;90.00;;;;;;5015465;28;92928;-72
2022/05/07 02:11:22;;;;;;;25.52;21.75;;;16.20;90.00;;;;;;5012383;28;95470;-71
2022/05/07 02:13:49;;;;;;;29.30;23.75;;;16.20;90.00;;;;;;5014928;28;95580;-72
2022/05/07 02:16:16;;;;;;;28.88;22.88;;;16.20;90.00;;;;;;5012697;28;91843;-72
2022/05/07 02:18:43;;;;;;;29.83;23.73;;;16.20;90.00;;;;;;5014131;28;92441;-72
2022/05/07 02:21:12;;;;;;;29.17;23.73;;;16.20;90.00;;;;;;5016971;28;92358;-72
2022/05/07 02:23:39;;;;;;;25.83;23.08;;;16.20;90.10;;;;;;5011786;28;95435;-72
2022/05/07 02:26:07;;;;;;;25.42;22.15;;;16.20;90.00;;;;;;5012553;28;92547;-72
2022/05/07 02:28:34;;;;;;;26.50;22.63;;;16.20;90.00;;;;;;5012738;28;92436;-72
2022/05/07 02:31:03;;;;;;;26.65;22.90;;;16.30;90.00;;;;;;4995528;28;94747;-72
2022/05/07 02:33:30;;;;;;;24.13;21.55;;;16.30;90.00;;;;;;5012026;28;95455;-72
2022/05/07 02:35:58;;;;;;;28.90;22.73;;;16.20;90.00;;;;;;5007260;28;92454;-72
2022/05/07 02:38:25;;;;;;;26.98;22.45;;;16.20;89.90;;;;;;5015005;28;92554;-72
2022/05/07 02:43:40;;;;;;;26.48;21.77;;;16.20;89.80;;;;;;5012995;28;94641;-72
2022/05/07 02:46:12;;;;;;;25.88;22.90;;;16.20;89.80;;;;;;5017048;28;92913;-72
2022/05/07 02:48:44;;;;;;;25.38;22.67;;;16.20;89.80;;;;;;5011765;28;94919;-72
2022/05/07 02:51:13;;;;;;;25.05;21.92;;;16.20;89.80;;;;;;5011856;28;95887;-72
2022/05/07 02:53:43;;;;;;;25.33;22.30;;;16.20;89.80;;;;;;5013141;28;95621;-72
2022/05/07 02:56:10;;;;;;;26.25;22.92;;;16.20;89.80;;;;;;5012007;28;92925;-72
2022/05/07 02:58:37;;;;;;;30.10;23.65;;;16.20;89.80;;;;;;5012292;28;92506;-72
2022/05/07 03:01:04;;;;;;;25.35;22.65;;;16.20;89.80;;;;;;5011181;28;95809;-72
2022/05/07 03:03:31;;;;;;;24.63;22.02;;;16.20;90.00;;;;;;5010621;28;95451;-72
2022/05/07 03:06:03;;;;;;;25.75;22.88;;;16.20;90.00;;;;;;5011175;28;92752;-72
2022/05/07 03:08:32;;;;;;;25.48;21.95;;;16.10;90.00;;;;;;5011650;28;92506;-72
2022/05/07 03:11:00;;;;;;;28.75;23.23;;;16.10;90.30;;;;;;5011197;28;95610;-72
2022/05/07 03:13:29;;;;;;;25.92;23.20;;;16.10;90.10;;;;;;5010055;28;95520;-72
2022/05/07 03:15:56;;;;;;;26.17;23.33;;;16.10;90.10;;;;;;5011148;28;92631;-72
2022/05/07 03:18:23;;;;;;;27.42;24.25;;;16.10;90.20;;;;;;5011521;28;92533;-72
2022/05/07 03:20:50;;;;;;;26.05;23.30;;;16.10;90.30;;;;;;5013582;28;95983;-72
2022/05/07 03:23:18;;;;;;;27.30;23.23;;;16.00;90.40;;;;;;5011056;28;95867;-72
2022/05/07 03:25:47;;;;;;;25.63;22.70;;;16.00;90.50;;;;;;5013508;28;92615;-72
2022/05/07 03:28:15;;;;;;;28.65;23.55;;;16.00;90.50;;;;;;5011293;28;92905;-72
2022/05/07 03:30:42;;;;;;;28.58;24.60;;;16.00;90.50;;;;;;5012775;28;94915;-72
2022/05/07 03:33:09;;;;;;;27.23;24.35;;;16.00;90.50;;;;;;5011023;28;95158;-72
2022/05/07 03:35:43;;;;;;;26.60;23.80;;;16.00;90.50;;;;;;5012362;28;92496;-72
2022/05/07 03:38:10;;;;;;;25.90;23.20;;;16.00;90.50;;;;;;5014698;28;94896;-72
2022/05/07 03:40:47;;;;;;;26.10;23.40;;;16.00;90.50;;;;;;5012766;28;95559;-72
2022/05/07 03:43:15;;;;;;;25.65;23.00;;;15.90;90.50;;;;;;5011185;28;95618;-72
2022/05/07 03:45:45;;;;;;;25.58;22.88;;;15.90;90.60;;;;;;5012308;28;101888;-72
2022/05/07 03:48:13;;;;;;;27.83;23.67;;;15.90;90.60;;;;;;5011244;28;92532;-72
2022/05/07 03:50:45;;;;;;;26.08;22.65;;;15.90;90.60;;;;;;5012639;28;95192;-72
2022/05/07 03:53:30;;;;;;;27.08;23.02;;;15.90;90.60;;;;;;5015655;28;92437;-72
2022/05/07 03:56:16;;;;;;;26.48;23.60;;;15.90;90.60;;;;;;5014819;28;91783;-72
2022/05/07 03:58:43;;;;;;;26.17;23.15;;;15.80;90.70;;;;;;5014178;28;92536;-72
2022/05/07 04:01:16;;;;;;;27.38;22.02;;;15.80;90.70;;;;;;5010814;28;95505;-72
2022/05/07 04:03:44;;;;;;;28.02;24.92;;;15.80;90.70;;;;;;5010912;28;95709;-72
2022/05/07 04:06:12;;;;;;;27.33;24.38;;;15.80;90.70;;;;;;5011058;28;92844;-72
2022/05/07 04:08:39;;;;;;;26.08;23.17;;;15.80;90.70;;;;;;5011778;28;92579;-72
2022/05/07 04:11:08;;;;;;;27.83;24.33;;;15.80;90.70;;;;;;5010608;28;95546;-72
2022/05/07 04:13:35;;;;;;;28.50;23.42;;;15.90;90.70;;;;;;4993547;28;93160;-72
2022/05/07 04:16:03;;;;;;;28.10;23.50;;;15.90;90.70;;;;;;5010331;28;92596;-72
2022/05/07 04:18:40;;;;;;;27.85;23.65;;;15.90;90.70;;;;;;4995249;28;92612;-72
2022/05/07 04:21:12;;;;;;;25.10;22.23;;;15.90;90.60;;;;;;4997547;28;94964;-72
2022/05/07 04:23:39;;;;;;;27.83;24.60;;;15.90;90.60;;;;;;4997256;28;92607;-72
2022/05/07 04:26:06;;;;;;;31.02;23.80;;;15.90;90.60;;;;;;5013795;28;92624;-72
2022/05/07 04:28:39;;;;;;;25.85;22.95;;;15.90;90.60;;;;;;5012648;28;94993;-72
2022/05/07 04:31:07;;;;;;;24.88;22.25;;;15.90;90.60;;;;;;5013659;28;95732;-72
2022/05/07 04:33:35;;;;;;;26.63;23.85;;;15.90;90.80;;;;;;4997162;28;95748;-72
2022/05/07 04:36:07;;;;;;;27.42;24.25;;;15.90;90.50;;;;;;5013837;28;92534;-72
2022/05/07 04:38:38;;;;;;;25.98;23.33;;;15.90;90.50;;;;;;5013769;28;92497;-72
2022/05/07 04:41:05;;;;;;;26.73;23.77;;;15.90;90.50;;;;;;5013703;28;93071;-72
2022/05/07 04:43:33;;;;;;;26.17;23.15;;;15.90;90.50;;;;;;4996867;28;95912;-72
2022/05/07 04:46:00;;;;;;;26.02;23.35;;;16.00;90.50;;;;;;5013757;28;91754;-72
2022/05/07 04:48:28;;;;;;;26.35;22.60;;;16.00;90.50;;;;;;5013679;28;92486;-72
2022/05/07 04:50:57;;;;;;;27.13;23.02;;;16.00;90.50;;;;;;5013279;28;95260;-72
2022/05/07 04:53:37;;;;;;;27.42;24.50;;;16.10;90.50;;;;;;4995169;28;95310;-72
2022/05/07 04:56:12;;;;;;;27.75;23.65;;;16.10;90.40;;;;;;5013794;28;92865;-72
2022/05/07 04:58:53;;;;;;;26.88;23.83;;;16.10;90.30;;;;;;5013256;28;92563;-72
2022/05/07 05:01:25;;;;;;;26.10;23.27;;;16.20;90.30;;;;;;4996383;28;95617;-72
2022/05/07 05:03:53;;;;;;;26.35;23.75;;;16.20;90.20;;;;;;4996554;28;95444;-72
2022/05/07 05:06:26;;;;;;;25.75;23.05;;;16.30;90.20;;;;;;4996458;28;93048;-72
2022/05/07 05:09:07;;;;;;;27.85;23.30;;;16.40;90.30;;;;;;5013079;28;92632;-72
2022/05/07 05:11:41;;;;;;;27.67;23.20;;;16.50;90.30;;;;;;5013672;28;94587;-72
2022/05/07 05:16:57;;;;;;;27.27;24.23;;;16.60;90.20;;;;;;5013076;28;92560;-72
2022/05/07 05:19:24;;;;;;;27.88;24.90;;;16.70;90.20;;;;;;5012154;28;94939;-72
2022/05/07 05:21:52;;;;;;;27.25;24.38;;;16.80;90.50;;;;;;5012202;28;95693;-72
2022/05/07 05:24:24;;;;;;;26.90;24.10;;;16.90;90.30;;;;;;5012872;28;95599;-72
2022/05/07 05:26:53;;;;;;;26.42;23.73;;;17.00;90.40;;;;;;4999778;28;92487;-72
2022/05/07 05:29:25;;;;;;;27.65;24.58;;;17.10;90.30;;;;;;5001307;28;92453;-72
2022/05/07 05:31:52;;;;;;;26.85;24.10;;;17.20;90.20;;;;;;5016297;28;95901;-72
2022/05/07 05:34:28;;;;;;;28.13;24.00;;;17.30;90.10;;;;;;5016612;28;95509;-72
2022/05/07 05:36:57;;;;;;;27.40;24.45;;;17.30;89.90;;;;;;5016498;28;91818;-72
2022/05/07 05:39:26;;;;;;;26.80;24.10;;;17.30;89.70;;;;;;5016577;28;92934;-72
2022/05/07 05:41:54;;;;;;;27.90;25.05;;;17.40;89.60;;;;;;4999683;28;92436;-72
2022/05/07 05:44:24;;;;;;;27.25;24.35;;;17.40;89.40;;;;;;5015115;28;95457;-72
2022/05/07 05:46:52;;;;;;;27.35;24.65;;;17.40;89.20;;;;;;5016017;28;92385;-72
2022/05/07 05:49:20;;;;;;;28.20;25.20;;;17.40;89.50;;;;;;5016284;28;92580;-72
2022/05/07 05:51:49;;;;;;;27.88;25.08;;;17.50;90.00;;;;;;5016252;28;96009;-72
2022/05/07 05:54:16;;;;;;;29.40;26.55;;;17.50;90.10;;;;;;5015922;28;95811;-72
2022/05/07 05:56:44;;;;;;;29.65;26.70;;;17.50;90.10;;;;;;5016142;28;92520;-72
2022/05/07 05:59:11;;;;;;;27.95;25.17;;;17.50;90.20;;;;;;5015900;28;92952;-72
2022/05/07 06:01:47;;;;;;;27.95;24.67;;;17.50;90.20;;;;;;5016493;28;95188;-72
2022/05/07 06:04:20;;;;;;;27.90;25.05;;;17.50;90.30;;;;;;5015983;28;94758;-72
2022/05/07 06:06:47;;;;;;;27.13;24.13;;;17.60;90.10;;;;;;5015977;28;93334;-72
2022/05/07 06:09:14;;;;;;;29.05;26.00;;;17.60;90.10;;;;;;5016088;28;94896;-72
2022/05/07 06:11:44;;;;;;;28.30;25.42;;;17.70;90.20;;;;;;5015778;28;95706;-72
2022/05/07 06:14:11;;;;;;;27.45;24.40;;;17.90;89.90;;;;;;5015103;28;94277;-72
2022/05/07 06:16:38;;;;;;;26.15;23.38;;;17.90;89.40;;;;;;5015617;28;92568;-72
2022/05/07 06:19:10;;;;;;;25.17;22.67;;;18.00;89.10;;;;;;5015611;28;92530;-72
2022/05/07 06:21:40;;;;;;;27.33;24.48;;;18.20;88.60;;;;;;5015608;28;95861;-72
2022/05/07 06:29:39;;;;;;;26.63;23.70;;;18.70;87.50;;;;;;5012635;28;92811;-72
2022/05/07 06:32:09;;;;;;;24.80;22.50;;;18.90;86.60;;;;;;5015321;28;95260;-72
2022/05/07 06:34:36;;;;;;;24.67;21.35;;;19.00;85.30;;;;;;5014121;28;95128;-72
2022/05/07 06:37:03;;;;;;;25.13;22.55;;;19.10;84.30;;;;;;5014275;28;92855;-73
2022/05/07 06:39:32;;;;;;;23.10;20.73;;;19.20;83.80;;;;;;4999588;28;92982;-72
2022/05/07 06:41:59;;;;;;;22.27;19.98;;;19.30;83.30;;;;;;5015058;28;95526;-72
2022/05/07 06:44:26;;;;;;;22.48;20.30;;;19.40;82.80;;;;;;4998811;28;95513;-72
2022/05/07 06:46:59;;;;;;;20.48;18.48;;;19.40;82.40;;;;;;5015340;28;92574;-72
2022/05/07 06:49:26;;;;;;;25.90;20.88;;;19.40;82.20;;;;;;5015044;28;92493;-72
2022/05/07 06:51:55;;;;;;;22.85;20.58;;;19.40;81.70;;;;;;5015624;28;94562;-72
2022/05/07 06:54:22;;;;;;;23.80;21.50;;;19.50;81.60;;;;;;5014866;28;94952;-72
2022/05/07 06:56:49;;;;;;;22.98;20.88;;;19.60;81.90;;;;;;5014894;28;92531;-72
2022/05/07 06:59:16;;;;;;;22.42;20.02;;;19.70;81.80;;;;;;5013765;28;94914;-72
2022/05/07 07:01:43;;;;;;;23.00;20.77;;;19.80;81.60;;;;;;5015096;28;93236;-72
2022/05/07 07:04:10;;;;;;;24.00;21.77;;;19.90;81.30;;;;;;5016081;28;93079;-72
2022/05/07 07:06:37;;;;;;;23.48;21.08;;;20.10;80.90;;;;;;5015376;28;92934;-73
2022/05/07 07:09:04;;;;;;;22.48;20.33;;;20.20;80.30;;;;;;4998553;28;92988;-73
2022/05/07 07:11:32;;;;;;;24.48;22.00;;;20.40;79.90;;;;;;5016185;28;93179;-72
2022/05/07 07:13:59;;;;;;;21.40;19.38;;;20.60;79.60;;;;;;5016345;28;93231;-73
2022/05/07 07:16:26;;;;;;;22.25;19.95;;;20.70;78.30;;;;;;5016232;28;91781;-74
2022/05/07 07:18:53;;;;;;;22.83;20.75;;;20.90;77.80;;;;;;5016504;28;92505;-74
2022/05/07 07:21:20;;;;;;;22.73;20.40;;;21.00;76.80;;;;;;5016018;28;93178;-74
2022/05/07 07:23:48;;;;;;;21.85;19.85;;;21.10;76.30;;;;;;5013688;28;94799;-73
2022/05/07 07:26:17;;;;;;;23.85;21.42;;;21.30;75.80;;;;;;5014557;28;92467;-74
2022/05/07 07:28:44;;;;;;;21.92;19.95;;;21.40;75.20;;;;;;5016201;28;92484;-74
2022/05/07 07:31:11;;;;;;;24.20;22.00;;;21.50;75.00;;;;;;5015896;28;93192;-74
2022/05/07 07:33:38;;;;;;;22.52;20.50;;;21.70;74.60;;;;;;5014477;28;95534;-73
2022/05/07 07:36:06;;;;;;;22.35;20.15;;;21.80;74.20;;;;;;5015869;28;92430;-73
2022/05/07 07:38:35;;;;;;;22.50;20.40;;;21.90;73.30;;;;;;5014553;28;92571;-73
2022/05/07 07:41:02;;;;;;;22.52;20.42;;;22.00;72.80;;;;;;5016143;28;92457;-73
2022/05/07 07:43:30;;;;;;;22.98;20.88;;;22.00;72.50;;;;;;5015585;28;92563;-74
2022/05/07 07:48:43;;;;;;;21.05;19.05;;;22.00;72.10;;;;;;5014653;28;94827;-73
2022/05/07 07:51:10;;;;;;;21.17;18.52;;;22.00;72.20;;;;;;5015418;28;93179;-73
2022/05/07 07:53:38;;;;;;;18.30;16.30;;;22.20;71.40;;;;;;5015841;28;93193;-74
2022/05/07 07:56:07;;;;;;;19.77;17.95;;;22.40;71.30;;;;;;5015555;28;93998;-73
2022/05/07 07:58:35;;;;;;;19.67;17.88;;;22.70;70.00;;;;;;5014544;28;92619;-73
2022/05/07 08:01:02;;;;;;;17.27;15.63;;;22.90;69.10;;;;;;5014052;28;95955;-73
2022/05/07 08:03:29;;;;;;;16.42;14.82;;;23.20;67.70;;;;;;5014107;28;93050;-73
2022/05/07 08:05:57;;;;;;;18.60;16.73;;;23.60;66.70;;;;;;5015804;28;92126;-73
2022/05/07 08:13:55;;;;;;;18.70;16.88;;;24.90;63.00;;;;;;5012984;28;95705;-74
2022/05/07 08:16:24;;;;;;;18.02;16.33;;;25.00;62.10;;;;;;5013419;28;92383;-74
2022/05/07 08:18:51;;;;;;;19.00;17.25;;;25.30;61.30;;;;;;5013835;28;92567;-74
2022/05/07 08:21:19;;;;;;;19.23;17.42;;;25.70;60.70;;;;;;5013589;28;95856;-74
2022/05/07 08:23:46;;;;;;;19.23;17.33;;;26.00;59.20;;;;;;4996681;28;95854;-74
2022/05/07 08:26:14;;;;;;;17.90;16.15;;;26.20;58.00;;;;;;5013666;28;92424;-74
2022/05/07 08:28:41;;;;;;;20.73;18.83;;;26.30;57.60;;;;;;5015122;28;92495;-74
2022/05/07 08:31:10;;;;;;;23.13;17.98;;;26.30;56.90;;;;;;5015186;28;92381;-74
2022/05/07 08:33:41;;;;;;;20.23;18.08;;;26.30;57.00;;;;;;5014028;28;95028;-74
2022/05/07 08:36:09;;;;;;;20.38;18.50;;;26.30;56.70;;;;;;5014931;28;92422;-74
2022/05/07 08:38:37;;;;;;;19.15;17.35;;;26.20;56.30;;;;;;5013699;28;95362;-74
2022/05/07 08:41:04;;;;;;;20.17;17.95;;;26.30;56.30;;;;;;5014915;28;92518;-74
2022/05/07 08:43:36;;;;;;;22.27;20.17;;;26.20;55.80;;;;;;5014929;28;92952;-74
2022/05/07 08:46:16;;;;;;;19.23;17.37;;;26.10;55.80;;;;;;5013958;28;93196;-74
2022/05/07 08:48:46;;;;;;;18.02;16.23;;;26.10;56.00;;;;;;5015370;28;92487;-74
2022/05/07 08:51:15;;;;;;;17.65;15.70;;;25.90;56.00;;;;;;5013908;28;93176;-73
2022/05/07 08:53:45;;;;;;;18.67;16.83;;;25.90;56.00;;;;;;5012653;28;95487;-73
2022/05/07 08:56:15;;;;;;;18.95;17.23;;;25.80;55.20;;;;;;5013234;28;91877;-73
2022/05/07 08:58:49;;;;;;;18.10;16.27;;;25.70;55.40;;;;;;4997029;28;93059;-73
2022/05/07 09:01:17;;;;;;;17.95;16.23;;;25.70;55.80;;;;;;5015978;28;95975;-73
2022/05/07 09:03:46;;;;;;;15.65;14.10;;;25.60;56.20;;;;;;5016590;28;101327;-73
2022/05/07 09:06:25;;;;;;;20.42;15.82;;;25.70;55.30;;;;;;5016894;28;92542;-73
2022/05/07 09:08:54;;;;;;;17.60;15.80;;;25.80;54.30;;;;;;5018514;28;92447;-73
2022/05/07 09:11:22;;;;;;;17.35;15.55;;;25.70;55.40;;;;;;5016414;28;96092;-73
2022/05/07 09:13:59;;;;;;;16.38;14.63;;;25.70;55.00;;;;;;5016927;28;92938;-73
2022/05/07 09:16:42;;;;;;;15.82;14.27;;;25.80;54.80;;;;;;5017767;28;92472;-73
2022/05/07 09:19:23;;;;;;;16.65;15.05;;;25.80;54.00;;;;;;5016747;28;92661;-73
2022/05/07 09:21:54;;;;;;;17.23;15.68;;;25.80;54.30;;;;;;5018334;28;92550;-73
2022/05/07 09:24:21;;;;;;;18.27;16.58;;;25.70;53.50;;;;;;5016958;28;92491;-73
2022/05/07 09:26:48;;;;;;;17.70;16.00;;;25.70;53.60;;;;;;5018080;28;92459;-73
2022/05/07 09:29:16;;;;;;;15.25;13.73;;;25.70;53.60;;;;;;5016756;28;94918;-73
2022/05/07 09:31:45;;;;;;;16.08;14.60;;;25.50;52.80;;;;;;5017550;28;93245;-73
2022/05/07 09:37:01;;;;;;;16.45;14.80;;;25.10;53.40;;;;;;5017984;28;92457;-73
2022/05/07 09:39:34;;;;;;;15.93;13.63;;;25.10;53.60;;;;;;5017602;28;92486;-73
2022/05/07 09:42:02;;;;;;;14.38;12.32;;;25.30;53.80;;;;;;5016309;28;95912;-73
2022/05/07 09:44:29;;;;;;;13.77;12.15;;;25.30;52.90;;;;;;5016877;28;106243;-73
2022/05/07 09:46:57;;;;;;;13.60;12.18;;;25.40;51.80;;;;;;5016653;28;91807;-73
2022/05/07 09:49:28;;;;;;;14.35;11.73;;;25.70;51.80;;;;;;5016509;28;93286;-74
2022/05/07 09:51:55;;;;;;;14.32;12.60;;;25.90;51.60;;;;;;5016375;28;93429;-74
2022/05/07 10:00:08;;;;;;;15.05;12.38;;;25.70;50.80;;;;;;5016826;28;92402;-73
2022/05/07 10:02:58;;;;;;;14.32;12.93;;;25.60;51.30;;;;;;5017444;28;93282;-73
2022/05/07 10:05:49;;;;;;;16.77;13.93;;;25.40;51.10;;;;;;5017514;28;93173;-73
2022/05/07 10:08:31;;;;;;;15.38;13.98;;;25.20;51.00;;;;;;5016321;28;92707;-73
2022/05/07 10:10:58;;;;;;;15.07;12.00;;;25.40;51.20;;;;;;5017464;28;92337;-73
2022/05/07 10:13:26;;;;;;;13.68;12.27;;;25.40;50.80;;;;;;5016494;28;92532;-73
2022/05/07 10:16:01;;;;;;;14.52;12.98;;;25.50;50.50;;;;;;5015215;28;94800;-73
2022/05/07 10:18:38;;;;;;;14.10;12.63;;;25.60;49.90;;;;;;5017702;28;92447;-73
2022/05/07 10:21:16;;;;;;;16.02;14.45;;;25.60;49.80;;;;;;5013925;28;94940;-73
2022/05/07 10:23:53;;;;;;;16.63;14.93;;;25.60;51.60;;;;;;5015314;28;95724;-73
2022/05/07 10:26:41;;;;;;;17.60;15.90;;;25.60;51.60;;;;;;4999063;28;92585;-73
2022/05/07 10:29:24;;;;;;;18.52;16.52;;;25.40;52.60;;;;;;5016211;28;92473;-73
2022/05/07 10:32:01;;;;;;;19.98;17.98;;;25.40;53.30;;;;;;5015369;28;92540;-73
2022/05/07 10:34:29;;;;;;;18.02;16.33;;;25.50;53.10;;;;;;5015531;28;95792;-73
2022/05/07 10:37:07;;;;;;;16.67;14.98;;;25.40;52.90;;;;;;5015005;28;95923;-73
2022/05/07 10:39:36;;;;;;;17.70;15.82;;;25.40;52.50;;;;;;5015644;28;91730;-73
2022/05/07 10:42:14;;;;;;;17.55;15.20;;;25.40;52.90;;;;;;5016842;28;92442;-73
2022/05/07 10:44:42;;;;;;;18.45;16.67;;;25.50;52.40;;;;;;5014689;28;95388;-73
2022/05/07 10:47:11;;;;;;;16.85;15.05;;;25.50;52.50;;;;;;5015484;28;94866;-73
2022/05/07 10:49:52;;;;;;;17.02;15.30;;;25.70;52.20;;;;;;5016448;28;92462;-73
2022/05/07 10:52:33;;;;;;;16.20;14.52;;;25.90;51.10;;;;;;5016808;28;92331;-73
2022/05/07 10:55:12;;;;;;;16.42;14.82;;;25.90;51.20;;;;;;5016454;28;93313;-73
2022/05/07 10:57:42;;;;;;;14.40;12.40;;;25.90;50.70;;;;;;5016415;28;93707;-73
2022/05/07 11:00:13;;;;;;;17.00;13.80;;;25.60;50.30;;;;;;5016518;28;92436;-73
2022/05/07 11:02:41;;;;;;;14.05;12.68;;;25.50;49.50;;;;;;5016514;28;92357;-73
2022/05/07 11:05:08;;;;;;;15.18;11.40;;;25.30;50.10;;;;;;5015229;28;94988;-73
2022/05/07 11:07:35;;;;;;;14.95;13.55;;;25.30;50.50;;;;;;5015193;28;92475;-73
2022/05/07 11:10:09;;;;;;;14.65;13.35;;;25.40;50.20;;;;;;5015358;28;92468;-73
2022/05/07 11:12:39;;;;;;;16.20;14.57;;;25.70;50.60;;;;;;5013638;28;95908;-73
2022/05/07 11:15:09;;;;;;;14.18;12.70;;;25.70;50.20;;;;;;5014081;28;96008;-73
2022/05/07 11:17:40;;;;;;;17.65;15.88;;;25.80;50.60;;;;;;5015142;28;95957;-73
2022/05/07 11:20:10;;;;;;;19.70;15.90;;;26.00;50.90;;;;;;5016577;28;92428;-72
2022/05/07 11:22:39;;;;;;;20.20;18.25;;;25.90;52.20;;;;;;5015747;28;92418;-73
2022/05/07 11:25:08;;;;;;;27.48;23.98;;;25.70;52.80;;;;;;5015931;28;93236;-73
2022/05/07 11:27:35;;;;;;;27.75;24.95;;;25.50;55.70;;;;;;4998236;28;92989;-73
2022/05/07 11:30:04;;;;;;;26.38;23.70;;;25.40;57.10;;;;;;5014993;28;91703;-73
2022/05/07 11:32:44;;;;;;;28.25;25.60;;;25.40;57.40;;;;;;5014698;28;92683;-74
2022/05/07 11:35:11;;;;;;;28.13;25.20;;;25.30;57.30;;;;;;4998012;28;95770;-73
2022/05/07 11:37:40;;;;;;;30.15;27.10;;;25.30;58.20;;;;;;5013181;28;95898;-73
2022/05/07 11:40:09;;;;;;;30.75;26.15;;;25.30;58.40;;;;;;5015990;28;92340;-73
2022/05/07 11:42:43;;;;;;;28.52;25.60;;;25.40;58.10;;;;;;5015913;28;92368;-73
2022/05/07 11:45:31;;;;;;;26.25;23.65;;;25.50;57.40;;;;;;5015963;28;93070;-73
2022/05/07 11:48:11;;;;;;;30.00;27.08;;;25.40;57.50;;;;;;5015625;28;92941;-73
2022/05/07 11:51:00;;;;;;;27.83;24.58;;;25.40;57.40;;;;;;5016037;28;92446;-73
2022/05/07 11:53:29;;;;;;;28.45;25.25;;;25.30;58.20;;;;;;5014929;28;92975;-73
2022/05/07 11:56:10;;;;;;;27.60;24.90;;;25.30;58.20;;;;;;5014631;28;92498;-74
2022/05/07 11:58:44;;;;;;;28.42;25.40;;;25.40;59.00;;;;;;5014298;28;94818;-74
2022/05/07 12:01:30;;;;;;;29.05;26.05;;;25.40;58.80;;;;;;5015898;28;92479;-74
2022/05/07 12:04:08;;;;;;;30.40;24.88;;;25.30;58.90;;;;;;5014575;28;94746;-74
2022/05/07 12:06:36;;;;;;;29.27;25.42;;;25.30;59.50;;;;;;5015794;28;93362;-74
2022/05/07 12:09:21;;;;;;;29.58;26.55;;;25.30;59.80;;;;;;5013871;28;95904;-74
2022/05/07 12:11:49;;;;;;;27.58;24.67;;;25.10;59.40;;;;;;4997163;28;92774;-74
2022/05/07 12:14:15;;;;;;;25.85;22.27;;;24.90;60.00;;;;;;4997523;28;92515;-74
2022/05/07 12:19:29;;;;;;;27.30;24.50;;;24.50;59.90;;;;;;5015619;28;93114;-74
2022/05/07 12:30:13;;;;;;;26.45;21.88;;;24.50;59.70;;;;;;4982078;28;95594;-73
2022/05/07 12:32:43;;;;;;;24.80;22.20;;;24.40;60.10;;;;;;5015314;28;92409;-72
2022/05/07 12:35:11;;;;;;;25.55;23.02;;;24.40;60.70;;;;;;4980295;28;92562;-72
2022/05/07 12:37:38;;;;;;;24.85;22.33;;;24.40;60.70;;;;;;4980615;28;95680;-72
2022/05/07 12:40:09;;;;;;;25.35;22.63;;;24.30;60.10;;;;;;5014913;28;93059;-72
2022/05/07 12:42:36;;;;;;;26.98;23.67;;;24.40;60.30;;;;;;5015382;28;92416;-72
2022/05/07 12:45:08;;;;;;;26.05;23.17;;;24.40;60.90;;;;;;4997702;28;93052;-72
2022/05/07 12:47:35;;;;;;;26.42;23.70;;;24.40;61.00;;;;;;4997109;28;95071;-73
2022/05/07 12:50:02;;;;;;;28.60;24.38;;;24.40;60.70;;;;;;4980700;28;92528;-73
2022/05/07 12:52:30;;;;;;;28.52;25.50;;;24.40;60.50;;;;;;4997430;28;92961;-73
2022/05/07 12:54:57;;;;;;;29.77;26.85;;;24.40;61.10;;;;;;4979388;28;94970;-73
2022/05/07 12:57:24;;;;;;;28.17;24.98;;;24.20;62.20;;;;;;5014762;28;93197;-73
2022/05/07 12:59:51;;;;;;;29.30;26.00;;;24.00;63.00;;;;;;5014319;28;94082;-72
2022/05/07 13:02:19;;;;;;;25.90;23.20;;;23.90;64.20;;;;;;5014973;28;92578;-72
2022/05/07 13:04:46;;;;;;;26.10;23.30;;;23.90;63.90;;;;;;5014996;28;92430;-72
2022/05/07 13:07:13;;;;;;;27.85;23.58;;;23.60;63.70;;;;;;4979829;28;95825;-72
2022/05/07 13:09:40;;;;;;;25.50;22.80;;;23.60;64.50;;;;;;4980485;28;103830;-72
2022/05/07 13:12:24;;;;;;;26.40;22.95;;;23.60;64.80;;;;;;4997353;28;91636;-73
2022/05/07 13:14:55;;;;;;;24.13;20.60;;;23.50;65.10;;;;;;4979703;28;92982;-72
2022/05/07 13:17:23;;;;;;;20.33;17.55;;;23.40;65.30;;;;;;5014568;28;93965;-71
2022/05/07 13:19:50;;;;;;;20.20;18.10;;;23.30;66.00;;;;;;5013298;28;94758;-72
2022/05/07 13:22:17;;;;;;;21.77;18.88;;;23.20;67.00;;;;;;4996714;28;92466;-73
2022/05/07 13:24:46;;;;;;;22.52;16.40;;;23.10;67.20;;;;;;5014420;28;92585;-71